createdAt,value
2018-06-30T12:39:13.415Z,5.00
2018-06-30T12:40:13.297Z,4.60
2018-06-30T12:41:13.066Z,5.30
2018-06-30T12:42:13.035Z,5.40
2018-06-30T12:43:13.002Z,5.80
2018-06-30T12:44:12.992Z,4.60
2018-06-30T12:45:12.932Z,5.00
2018-06-30T12:46:12.896Z,5.10
2018-06-30T12:47:12.877Z,5.00
2018-06-30T12:48:12.841Z,5.10
2018-06-30T12:49:12.791Z,5.10
2018-06-30T12:50:12.797Z,4.60
2018-06-30T12:51:15.529Z,5.40
2018-06-30T12:52:12.693Z,5.20
2018-06-30T12:53:12.669Z,5.10
2018-06-30T12:54:14.240Z,4.90
2018-06-30T12:55:12.606Z,5.20
2018-06-30T12:56:12.581Z,4.90
2018-06-30T12:57:12.520Z,5.40
2018-06-30T12:58:12.557Z,5.00
2018-06-30T12:59:19.163Z,5.20
2018-06-30T13:00:12.422Z,4.90
2018-06-30T13:01:12.380Z,5.40
2018-06-30T13:02:12.384Z,5.40
2018-06-30T13:03:17.159Z,5.10
2018-06-30T13:04:19.745Z,5.00
2018-06-30T13:05:13.662Z,4.90
2018-06-30T13:06:19.118Z,5.00
2018-06-30T13:07:12.186Z,5.20
2018-06-30T13:08:12.147Z,5.30
2018-06-30T13:09:13.218Z,5.20
2018-06-30T13:10:13.895Z,4.80
2018-06-30T13:11:12.038Z,5.30
2018-06-30T13:12:12.188Z,4.80
2018-06-30T13:13:15.178Z,5.60
2018-06-30T13:14:13.154Z,5.10
2018-06-30T13:15:13.187Z,5.10
2018-06-30T13:16:15.897Z,5.40
2018-06-30T13:17:18.636Z,5.40
2018-06-30T13:18:13.200Z,5.30
2018-06-30T13:19:15.168Z,5.70
2018-06-30T13:20:14.699Z,5.50
2018-06-30T13:21:13.710Z,5.40
2018-06-30T13:22:13.551Z,5.20
2018-06-30T13:23:21.735Z,6.00
2018-06-30T13:24:14.628Z,5.70
2018-06-30T13:25:12.436Z,5.20
2018-06-30T13:26:13.143Z,5.50
2018-06-30T13:27:13.229Z,5.60
2018-06-30T13:28:11.482Z,5.30
2018-06-30T13:29:11.428Z,5.50
2018-06-30T13:30:12.210Z,5.50
2018-06-30T13:31:11.363Z,5.10
2018-06-30T13:32:13.174Z,5.10
2018-06-30T13:33:11.575Z,5.50
2018-06-30T13:34:11.388Z,5.00
2018-06-30T13:35:11.285Z,5.00
2018-06-30T13:36:12.897Z,5.20
2018-06-30T13:37:11.157Z,5.20
2018-06-30T13:38:11.143Z,5.40
2018-06-30T13:39:11.093Z,5.50
2018-06-30T13:40:11.159Z,4.80
2018-06-30T13:41:11.025Z,4.90
2018-06-30T13:42:10.993Z,4.90
2018-06-30T13:43:11.019Z,4.90
2018-06-30T13:44:10.924Z,4.80
2018-06-30T13:45:10.890Z,4.80
2018-06-30T13:46:10.965Z,4.70
2018-06-30T13:47:10.823Z,4.50
2018-06-30T13:48:14.168Z,4.80
2018-06-30T13:49:10.755Z,4.70
2018-06-30T13:50:10.721Z,4.70
2018-06-30T13:51:10.684Z,4.70
2018-06-30T13:52:10.676Z,4.80
2018-06-30T13:53:10.615Z,4.90
2018-06-30T13:54:11.243Z,5.10
2018-06-30T13:55:10.553Z,4.70
2018-06-30T13:56:10.521Z,4.70
2018-06-30T13:57:10.483Z,4.90
2018-06-30T13:58:10.476Z,4.40
2018-06-30T13:59:10.445Z,4.80
2018-06-30T14:00:11.171Z,4.60
2018-06-30T14:01:10.348Z,4.80
2018-06-30T14:02:10.318Z,4.80
2018-06-30T14:03:10.285Z,4.90
2018-06-30T14:04:10.248Z,4.60
2018-06-30T14:05:10.243Z,4.70
2018-06-30T14:06:10.181Z,4.60
2018-06-30T14:07:10.181Z,4.20
2018-06-30T14:08:10.111Z,4.40
2018-06-30T14:09:10.094Z,4.50
2018-06-30T14:10:10.045Z,4.50
2018-06-30T14:11:10.078Z,4.50
2018-06-30T14:12:09.980Z,4.40
2018-06-30T14:13:09.947Z,4.50
2018-06-30T14:14:09.916Z,4.50
2018-06-30T14:15:09.886Z,4.00
2018-06-30T14:16:09.908Z,4.50
2018-06-30T14:17:09.895Z,4.10
2018-06-30T14:18:09.837Z,4.30
2018-06-30T14:19:09.747Z,4.40
2018-06-30T14:20:09.719Z,4.50
2018-06-30T14:21:09.678Z,4.30
2018-06-30T14:22:09.682Z,4.70
2018-06-30T14:23:09.617Z,4.70
2018-06-30T14:24:09.584Z,4.30
2018-06-30T14:25:09.545Z,4.40
2018-06-30T14:26:09.598Z,4.60
2018-06-30T14:27:09.555Z,4.30
2018-06-30T14:28:09.553Z,4.20
2018-06-30T14:29:09.524Z,4.20
2018-06-30T14:30:09.381Z,4.20
2018-06-30T14:31:09.354Z,4.30
2018-06-30T14:32:09.317Z,3.80
2018-06-30T14:33:09.329Z,4.10
2018-06-30T14:34:09.279Z,3.80
2018-06-30T14:35:09.276Z,3.80
2018-06-30T14:36:09.257Z,4.00
2018-06-30T14:37:09.170Z,3.80
2018-06-30T14:38:09.765Z,4.00
2018-06-30T14:39:09.129Z,3.80
2018-06-30T14:40:09.155Z,4.00
2018-06-30T14:41:09.023Z,3.80
2018-06-30T14:42:09.028Z,3.80
2018-06-30T14:43:09.038Z,4.00
2018-06-30T14:44:08.985Z,3.70
2018-06-30T14:45:08.901Z,3.80
2018-06-30T14:46:09.222Z,3.70
2018-06-30T14:47:08.823Z,3.80
2018-06-30T14:48:08.879Z,3.60
2018-06-30T14:49:08.751Z,3.60
2018-06-30T14:50:08.724Z,3.80
2018-06-30T14:51:08.685Z,3.60
2018-06-30T14:52:08.790Z,3.50
2018-06-30T14:53:08.629Z,3.60
2018-06-30T14:54:08.590Z,3.60
2018-06-30T14:55:08.824Z,3.70
2018-06-30T14:56:08.532Z,3.70
2018-06-30T14:57:08.496Z,3.40
2018-06-30T14:58:08.486Z,3.60
2018-06-30T14:59:08.425Z,3.40
2018-06-30T15:00:08.395Z,3.50
2018-06-30T15:01:08.360Z,4.00
2018-06-30T15:02:08.324Z,3.50
2018-06-30T15:03:08.296Z,3.50
2018-06-30T15:04:08.283Z,3.40
2018-06-30T15:05:08.229Z,3.30
2018-06-30T15:06:08.200Z,3.70
2018-06-30T15:07:08.171Z,3.30
2018-06-30T15:08:08.135Z,3.80
2018-06-30T15:09:08.162Z,3.50
2018-06-30T15:10:08.112Z,3.70
2018-06-30T15:11:08.033Z,3.60
2018-06-30T15:12:08.006Z,3.30
2018-06-30T15:13:07.978Z,3.60
2018-06-30T15:14:07.931Z,3.50
2018-06-30T15:15:07.908Z,3.40
2018-06-30T15:16:07.926Z,3.40
2018-06-30T15:17:07.838Z,3.40
2018-06-30T15:18:07.831Z,3.40
2018-06-30T15:19:09.448Z,3.60
2018-06-30T15:20:07.749Z,3.60
2018-06-30T15:21:07.706Z,3.30
2018-06-30T15:22:07.672Z,3.30
2018-06-30T15:23:07.686Z,3.40
2018-06-30T15:24:07.612Z,3.50
2018-06-30T15:25:07.578Z,3.50
2018-06-30T15:26:07.551Z,3.50
2018-06-30T15:27:07.518Z,3.30
2018-06-30T15:28:07.514Z,3.80
2018-06-30T15:29:07.478Z,3.20
2018-06-30T15:30:07.455Z,3.50
2018-06-30T15:31:07.429Z,3.50
2018-06-30T15:32:07.541Z,3.50
2018-06-30T15:33:08.794Z,3.30
2018-06-30T15:34:07.321Z,3.50
2018-06-30T15:35:07.342Z,3.60
2018-06-30T15:36:07.315Z,3.40
2018-06-30T15:37:07.275Z,3.50
2018-06-30T15:38:07.357Z,3.40
2018-06-30T15:39:07.333Z,3.30
2018-06-30T15:40:07.107Z,3.50
2018-06-30T15:41:07.057Z,3.50
2018-06-30T15:42:07.042Z,3.40
2018-06-30T15:43:07.045Z,3.40
2018-06-30T15:44:06.989Z,3.30
2018-06-30T15:45:06.932Z,3.30
2018-06-30T15:46:06.895Z,3.50
2018-06-30T15:47:06.954Z,3.30
2018-06-30T15:48:06.894Z,3.30
2018-06-30T15:49:07.277Z,3.50
2018-06-30T15:50:07.291Z,3.40
2018-06-30T15:51:06.768Z,3.50
2018-06-30T15:52:07.177Z,3.60
2018-06-30T15:53:06.813Z,3.50
2018-06-30T15:54:06.662Z,3.50
2018-06-30T15:55:06.744Z,3.20
2018-06-30T15:56:06.577Z,3.60
2018-06-30T15:57:06.550Z,3.30
2018-06-30T15:58:06.515Z,3.40
2018-06-30T15:59:06.494Z,3.50
2018-06-30T16:00:06.576Z,3.40
2018-06-30T16:01:06.415Z,3.40
2018-06-30T16:02:06.383Z,3.40
2018-06-30T16:03:06.351Z,3.40
2018-06-30T16:04:06.319Z,3.10
2018-06-30T16:05:07.200Z,3.10
2018-06-30T16:06:08.535Z,3.30
2018-06-30T16:07:06.229Z,3.40
2018-06-30T16:08:06.198Z,3.50
2018-06-30T16:09:06.159Z,3.30
2018-06-30T16:10:06.705Z,3.20
2018-06-30T16:11:06.120Z,3.30
2018-06-30T16:12:06.055Z,3.70
2018-06-30T16:13:07.705Z,3.20
2018-06-30T16:14:07.747Z,3.10
2018-06-30T16:15:05.970Z,2.90
2018-06-30T16:16:05.938Z,3.30
2018-06-30T16:17:06.126Z,3.40
2018-06-30T16:18:05.866Z,3.30
2018-06-30T16:19:06.067Z,3.30
2018-06-30T16:20:05.829Z,3.20
2018-06-30T16:21:06.280Z,3.60
2018-06-30T16:22:05.766Z,3.50
2018-06-30T16:23:05.772Z,3.40
2018-06-30T16:24:05.713Z,3.50
2018-06-30T16:25:05.646Z,3.50
2018-06-30T16:26:05.622Z,3.60
2018-06-30T16:27:05.606Z,3.50
2018-06-30T16:28:05.626Z,3.60
2018-06-30T16:29:05.718Z,3.80
2018-06-30T16:30:05.497Z,3.30
2018-06-30T16:31:05.451Z,3.50
2018-06-30T16:32:05.422Z,3.50
2018-06-30T16:33:05.387Z,3.60
2018-06-30T16:34:06.208Z,3.30
2018-06-30T16:35:05.513Z,3.50
2018-06-30T16:36:05.356Z,3.10
2018-06-30T16:37:05.258Z,3.40
2018-06-30T16:38:05.232Z,3.70
2018-06-30T16:39:05.199Z,3.60
2018-06-30T16:40:05.164Z,3.70
2018-06-30T16:41:05.223Z,3.60
2018-06-30T16:42:05.103Z,3.60
2018-06-30T16:43:05.066Z,3.10
2018-06-30T16:44:05.034Z,3.40
2018-06-30T16:45:05.001Z,3.20
2018-06-30T16:46:04.970Z,3.30
2018-06-30T16:47:04.960Z,3.40
2018-06-30T16:48:04.909Z,3.50
2018-06-30T16:49:04.942Z,3.50
2018-06-30T16:50:04.879Z,3.50
2018-06-30T16:51:04.807Z,3.80
2018-06-30T16:52:04.776Z,3.50
2018-06-30T16:53:04.745Z,3.40
2018-06-30T16:54:04.709Z,3.20
2018-06-30T16:55:04.712Z,3.00
2018-06-30T16:56:04.643Z,3.60
2018-06-30T16:57:04.616Z,3.30
2018-06-30T16:58:04.588Z,3.20
2018-06-30T16:59:04.552Z,3.50
2018-06-30T17:00:04.514Z,3.10
2018-06-30T17:01:04.507Z,3.20
2018-06-30T17:02:04.452Z,2.90
2018-06-30T17:03:04.420Z,3.10
2018-06-30T17:04:04.388Z,3.40
2018-06-30T17:05:04.352Z,3.30
2018-06-30T17:06:04.368Z,3.00
2018-06-30T17:07:04.289Z,2.90
2018-06-30T17:08:04.251Z,3.30
2018-06-30T17:09:04.713Z,3.60
2018-06-30T17:10:04.766Z,3.10
2018-06-30T17:11:04.717Z,3.40
2018-06-30T17:12:04.717Z,3.40
2018-06-30T17:13:04.088Z,3.30
2018-06-30T17:14:04.063Z,3.30
2018-06-30T17:15:04.071Z,3.30
2018-06-30T17:16:03.996Z,3.30
2018-06-30T17:17:03.984Z,3.10
2018-06-30T17:18:03.928Z,3.30
2018-06-30T17:19:03.893Z,3.50
2018-06-30T17:20:03.878Z,3.10
2018-06-30T17:21:03.825Z,2.90
2018-06-30T17:22:03.828Z,3.20
2018-06-30T17:23:03.761Z,3.20
2018-06-30T17:24:03.731Z,3.10
2018-06-30T17:25:03.697Z,3.30
2018-06-30T17:26:03.735Z,3.10
2018-06-30T17:27:03.633Z,3.20
2018-06-30T17:28:03.629Z,3.30
2018-06-30T17:29:03.572Z,3.20
2018-06-30T17:30:04.263Z,3.00
2018-06-30T17:31:03.499Z,3.30
2018-06-30T17:32:03.467Z,3.00
2018-06-30T17:33:03.435Z,3.00
2018-06-30T17:34:03.427Z,3.00
2018-06-30T17:35:03.369Z,3.20
2018-06-30T17:36:03.334Z,3.20
2018-06-30T17:37:03.302Z,3.10
2018-06-30T17:38:03.273Z,2.90
2018-06-30T17:39:03.266Z,2.90
2018-06-30T17:40:03.232Z,2.90
2018-06-30T17:41:03.179Z,2.70
2018-06-30T17:42:03.141Z,3.20
2018-06-30T17:43:03.103Z,3.20
2018-06-30T17:44:03.072Z,3.30
2018-06-30T17:45:03.038Z,3.10
2018-06-30T17:46:03.032Z,3.20
2018-06-30T17:47:02.973Z,3.30
2018-06-30T17:48:02.938Z,3.40
2018-06-30T17:49:02.904Z,3.30
2018-06-30T17:50:02.886Z,3.40
2018-06-30T17:51:02.843Z,3.50
2018-06-30T17:52:02.841Z,3.40
2018-06-30T17:53:02.784Z,3.40
2018-06-30T17:54:03.723Z,3.60
2018-06-30T17:55:02.706Z,3.20
2018-06-30T17:56:02.676Z,3.10
2018-06-30T17:57:02.640Z,3.20
2018-06-30T17:58:02.640Z,3.10
2018-06-30T17:59:02.576Z,3.30
2018-06-30T18:00:02.546Z,3.10
2018-06-30T18:01:02.510Z,3.00
2018-06-30T18:02:03.227Z,3.10
2018-06-30T18:03:02.443Z,2.80
2018-06-30T18:04:02.440Z,3.00
2018-06-30T18:05:02.378Z,3.20
2018-06-30T18:06:02.341Z,2.90
2018-06-30T18:07:02.338Z,2.90
2018-06-30T18:08:02.279Z,2.90
2018-06-30T18:09:02.242Z,2.90
2018-06-30T18:10:02.225Z,3.00
2018-06-30T18:11:02.178Z,3.20
2018-06-30T18:12:02.326Z,3.30
2018-06-30T18:13:02.110Z,2.90
2018-06-30T18:14:02.126Z,3.10
2018-06-30T18:15:02.047Z,3.10
2018-06-30T18:16:02.077Z,3.00
2018-06-30T18:17:01.976Z,3.00
2018-06-30T18:18:02.766Z,3.40
2018-06-30T18:19:01.912Z,2.90
2018-06-30T18:20:02.845Z,2.90
2018-06-30T18:21:02.729Z,2.90
2018-06-30T18:22:02.728Z,3.00
2018-06-30T18:23:02.316Z,2.90
2018-06-30T18:24:02.319Z,2.70
2018-06-30T18:25:01.716Z,3.00
2018-06-30T18:26:02.230Z,2.90
2018-06-30T18:27:02.229Z,2.80
2018-06-30T18:28:01.619Z,2.80
2018-06-30T18:29:01.609Z,3.20
2018-06-30T18:30:01.564Z,2.80
2018-06-30T18:31:01.519Z,3.00
2018-06-30T18:32:01.480Z,2.80
2018-06-30T18:33:01.450Z,3.00
2018-06-30T18:34:01.415Z,2.80
2018-06-30T18:35:01.416Z,3.00
2018-06-30T18:36:01.348Z,2.80
2018-06-30T18:37:01.318Z,2.80
2018-06-30T18:38:01.281Z,3.00
2018-06-30T18:39:01.254Z,3.10
2018-06-30T18:40:01.239Z,2.70
2018-06-30T18:41:01.212Z,2.70
2018-06-30T18:42:01.149Z,2.90
2018-06-30T18:43:01.118Z,2.90
2018-06-30T18:44:01.082Z,2.70
2018-06-30T18:45:01.064Z,2.80
2018-06-30T18:46:01.795Z,3.00
2018-06-30T18:47:01.010Z,2.90
2018-06-30T18:48:00.953Z,2.80
2018-06-30T18:49:00.920Z,2.70
2018-06-30T18:50:00.886Z,2.70
2018-06-30T18:51:00.868Z,3.00
2018-06-30T18:52:00.820Z,2.80
2018-06-30T18:53:00.816Z,3.00
2018-06-30T18:54:00.751Z,2.90
2018-06-30T18:55:00.723Z,2.70
2018-06-30T18:56:00.684Z,2.60
2018-06-30T18:57:00.654Z,2.50
2018-06-30T18:58:00.623Z,2.70
2018-06-30T18:59:00.650Z,2.60
2018-06-30T19:00:00.555Z,2.80
2018-06-30T19:01:00.548Z,2.90
2018-06-30T19:02:00.486Z,2.80
2018-06-30T19:03:00.451Z,2.70
2018-06-30T19:04:00.461Z,2.70
2018-06-30T19:05:00.385Z,2.80
2018-06-30T19:06:00.376Z,2.80
2018-06-30T19:07:00.344Z,2.60
2018-06-30T19:08:00.290Z,2.80
2018-06-30T19:09:00.250Z,2.80
2018-06-30T19:10:00.280Z,2.70
2018-06-30T19:11:00.186Z,2.70
2018-06-30T19:12:00.154Z,2.80
2018-06-30T19:13:00.148Z,2.90
2018-06-30T19:14:00.087Z,3.00
2018-06-30T19:15:00.057Z,2.80
2018-06-30T19:16:00.045Z,2.90
2018-06-30T19:16:59.984Z,2.80
2018-06-30T19:17:59.954Z,3.00
2018-06-30T19:18:59.950Z,3.00
2018-06-30T19:19:59.888Z,3.00
2018-06-30T19:20:59.857Z,3.10
2018-06-30T19:21:59.819Z,3.10
2018-06-30T19:22:59.788Z,2.90
2018-06-30T19:23:59.783Z,3.00
2018-06-30T19:24:59.721Z,2.90
2018-06-30T19:25:59.687Z,2.90
2018-06-30T19:26:59.653Z,2.80
2018-06-30T19:27:59.618Z,3.00
2018-06-30T19:28:59.614Z,2.80
2018-06-30T19:29:59.549Z,3.10
2018-06-30T19:30:59.520Z,2.80
2018-06-30T19:31:59.487Z,2.90
2018-06-30T19:32:59.450Z,3.10
2018-06-30T19:33:59.419Z,2.80
2018-06-30T19:34:59.410Z,3.10
2018-06-30T19:35:59.353Z,3.00
2018-06-30T19:36:59.320Z,3.10
2018-06-30T19:37:59.285Z,2.90
2018-06-30T19:38:59.252Z,3.10
2018-06-30T19:39:59.218Z,2.90
2018-06-30T19:40:59.211Z,2.90
2018-06-30T19:41:59.156Z,3.10
2018-06-30T19:42:59.116Z,2.90
2018-06-30T19:43:59.083Z,3.00
2018-06-30T19:44:59.047Z,2.80
2018-06-30T19:45:59.046Z,3.00
2018-06-30T19:46:58.981Z,2.80
2018-06-30T19:47:58.957Z,2.80
2018-06-30T19:48:58.917Z,2.90
2018-06-30T19:49:58.880Z,3.10
2018-06-30T19:50:58.881Z,3.00
2018-06-30T19:51:58.810Z,3.20
2018-06-30T19:52:58.787Z,3.00
2018-06-30T19:53:58.747Z,3.00
2018-06-30T19:54:58.714Z,2.90
2018-06-30T19:55:58.678Z,3.40
2018-06-30T19:56:58.676Z,2.80
2018-06-30T19:57:58.611Z,3.00
2018-06-30T19:58:58.580Z,3.00
2018-06-30T19:59:58.548Z,2.80
2018-06-30T20:00:58.526Z,2.70
2018-06-30T20:01:58.477Z,3.20
2018-06-30T20:02:58.477Z,2.80
2018-06-30T20:03:58.407Z,2.90
2018-06-30T20:04:58.386Z,2.90
2018-06-30T20:05:58.344Z,3.00
2018-06-30T20:06:58.309Z,3.00
2018-06-30T20:07:58.287Z,3.30
2018-06-30T20:08:58.272Z,3.00
2018-06-30T20:09:58.209Z,3.30
2018-06-30T20:10:58.173Z,3.00
2018-06-30T20:11:58.147Z,3.10
2018-06-30T20:12:58.115Z,3.10
2018-06-30T20:13:58.075Z,2.80
2018-06-30T20:14:58.068Z,3.00
2018-06-30T20:15:58.008Z,3.20
2018-06-30T20:16:57.971Z,3.10
2018-06-30T20:17:57.967Z,3.10
2018-06-30T20:18:57.903Z,3.10
2018-06-30T20:19:57.872Z,3.10
2018-06-30T20:20:57.909Z,3.30
2018-06-30T20:21:57.806Z,3.20
2018-06-30T20:22:57.799Z,3.00
2018-06-30T20:23:57.732Z,3.20
2018-06-30T20:24:57.704Z,3.20
2018-06-30T20:25:57.671Z,3.10
2018-06-30T20:26:58.257Z,3.30
2018-06-30T20:27:57.627Z,3.20
2018-06-30T20:28:57.566Z,3.20
2018-06-30T20:29:57.534Z,3.30
2018-06-30T20:30:57.498Z,3.10
2018-06-30T20:31:57.469Z,4.00
2018-06-30T20:32:57.462Z,3.70
2018-06-30T20:33:57.459Z,3.40
2018-06-30T20:34:58.137Z,3.50
2018-06-30T20:35:57.329Z,3.20
2018-06-30T20:36:57.296Z,3.40
2018-06-30T20:37:57.265Z,3.60
2018-06-30T20:38:57.258Z,3.30
2018-06-30T20:39:57.198Z,3.60
2018-06-30T20:40:57.160Z,3.60
2018-06-30T20:41:57.126Z,3.40
2018-06-30T20:42:57.803Z,3.50
2018-06-30T20:43:57.059Z,3.40
2018-06-30T20:44:57.074Z,3.50
2018-06-30T20:45:56.998Z,3.60
2018-06-30T20:46:56.962Z,3.70
2018-06-30T20:47:56.925Z,4.00
2018-06-30T20:48:56.888Z,3.50
2018-06-30T20:49:56.856Z,3.60
2018-06-30T20:50:56.852Z,3.90
2018-06-30T20:51:56.788Z,3.40
2018-06-30T20:52:56.755Z,3.70
2018-06-30T20:53:56.718Z,3.30
2018-06-30T20:54:56.686Z,3.50
2018-06-30T20:55:56.651Z,3.20
2018-06-30T20:56:56.657Z,3.70
2018-06-30T20:57:56.588Z,3.90
2018-06-30T20:58:56.553Z,3.70
2018-06-30T20:59:56.517Z,3.50
2018-06-30T21:00:56.493Z,3.50
2018-06-30T21:01:56.451Z,3.70
2018-06-30T21:02:56.442Z,3.60
2018-06-30T21:03:56.385Z,3.80
2018-06-30T21:04:56.345Z,3.40
2018-06-30T21:05:56.314Z,3.70
2018-06-30T21:06:56.289Z,3.60
2018-06-30T21:07:56.246Z,3.70
2018-06-30T21:08:56.237Z,3.80
2018-06-30T21:09:56.178Z,3.60
2018-06-30T21:10:56.150Z,3.80
2018-06-30T21:11:56.109Z,3.50
2018-06-30T21:12:56.113Z,3.40
2018-06-30T21:13:56.041Z,3.40
2018-06-30T21:14:56.818Z,3.60
2018-06-30T21:15:55.974Z,3.60
2018-06-30T21:16:55.943Z,3.50
2018-06-30T21:17:55.907Z,3.80
2018-06-30T21:18:55.879Z,3.50
2018-06-30T21:19:55.836Z,4.10
2018-06-30T21:20:56.289Z,3.60
2018-06-30T21:21:55.768Z,3.70
2018-06-30T21:22:55.739Z,3.40
2018-06-30T21:23:55.704Z,3.70
2018-06-30T21:24:55.670Z,3.80
2018-06-30T21:25:55.641Z,3.70
2018-06-30T21:26:55.628Z,3.70
2018-06-30T21:27:55.594Z,3.90
2018-06-30T21:28:55.539Z,4.10
2018-06-30T21:29:56.273Z,4.10
2018-06-30T21:30:55.464Z,3.90
2018-06-30T21:31:55.439Z,3.80
2018-06-30T21:32:55.454Z,3.80
2018-06-30T21:33:55.809Z,3.70
2018-06-30T21:34:55.340Z,4.10
2018-06-30T21:35:55.298Z,3.80
2018-06-30T21:36:55.261Z,4.00
2018-06-30T21:37:55.231Z,4.00
2018-06-30T21:38:55.221Z,3.70
2018-06-30T21:39:55.186Z,3.70
2018-06-30T21:40:55.125Z,4.10
2018-06-30T21:41:55.088Z,4.00
2018-06-30T21:42:55.064Z,3.80
2018-06-30T21:43:55.774Z,4.00
2018-06-30T21:44:55.016Z,4.30
2018-06-30T21:45:54.965Z,4.10
2018-06-30T21:46:54.925Z,4.10
2018-06-30T21:47:54.888Z,4.10
2018-06-30T21:48:54.859Z,4.20
2018-06-30T21:49:54.821Z,4.50
2018-06-30T21:50:54.813Z,4.20
2018-06-30T21:51:54.759Z,4.50
2018-06-30T21:52:54.718Z,4.60
2018-06-30T21:53:54.683Z,4.20
2018-06-30T21:54:54.653Z,4.40
2018-06-30T21:55:54.619Z,4.50
2018-06-30T21:56:54.617Z,4.30
2018-06-30T21:57:54.549Z,4.60
2018-06-30T21:58:54.513Z,4.50
2018-06-30T21:59:54.479Z,4.90
2018-06-30T22:00:54.447Z,4.80
2018-06-30T22:01:54.436Z,4.50
2018-06-30T22:02:54.375Z,4.90
2018-06-30T22:03:54.353Z,4.70
2018-06-30T22:04:54.310Z,4.70
2018-06-30T22:05:54.272Z,4.70
2018-06-30T22:06:54.235Z,4.50
2018-06-30T22:07:55.177Z,4.80
2018-06-30T22:08:54.164Z,4.90
2018-06-30T22:09:54.137Z,4.60
2018-06-30T22:10:54.334Z,4.70
2018-06-30T22:11:54.063Z,4.40
2018-06-30T22:12:54.063Z,4.90
2018-06-30T22:13:53.994Z,4.40
2018-06-30T22:14:54.333Z,4.80
2018-06-30T22:15:53.927Z,4.80
2018-06-30T22:16:53.890Z,4.60
2018-06-30T22:17:53.856Z,4.40
2018-06-30T22:18:53.832Z,4.40
2018-06-30T22:19:53.784Z,4.60
2018-06-30T22:20:54.153Z,4.90
2018-06-30T22:21:53.777Z,4.40
2018-06-30T22:22:53.721Z,4.40
2018-06-30T22:23:55.728Z,4.50
2018-06-30T22:24:53.663Z,4.60
2018-06-30T22:25:53.613Z,4.40
2018-06-30T22:26:53.724Z,4.30
2018-06-30T22:27:53.530Z,4.10
2018-06-30T22:28:54.474Z,4.40
2018-06-30T22:29:53.468Z,4.30
2018-06-30T22:30:53.402Z,4.70
2018-06-30T22:31:53.369Z,4.20
2018-06-30T22:32:53.402Z,4.80
2018-06-30T22:33:53.301Z,4.80
2018-06-30T22:34:53.291Z,4.20
2018-06-30T22:35:53.446Z,4.40
2018-06-30T22:36:53.842Z,5.20
2018-06-30T22:37:53.161Z,4.80
2018-06-30T22:38:53.806Z,5.10
2018-06-30T22:39:53.091Z,4.70
2018-06-30T22:40:53.081Z,4.80
2018-06-30T22:41:53.068Z,4.70
2018-06-30T22:42:53.044Z,4.90
2018-06-30T22:43:54.846Z,4.90
2018-06-30T22:44:54.789Z,4.80
2018-06-30T22:45:53.046Z,4.60
2018-06-30T22:46:52.954Z,4.80
2018-06-30T22:47:52.927Z,4.60
2018-06-30T22:48:52.812Z,4.90
2018-06-30T22:49:53.290Z,4.70
2018-06-30T22:50:53.361Z,4.80
2018-06-30T22:51:52.775Z,4.30
2018-06-30T22:52:52.645Z,5.00
2018-06-30T22:53:52.602Z,4.40
2018-06-30T22:54:52.567Z,4.50
2018-06-30T22:55:52.528Z,4.90
2018-06-30T22:56:52.524Z,4.80
2018-06-30T22:57:52.470Z,4.90
2018-06-30T22:58:52.429Z,5.00
2018-06-30T22:59:52.395Z,4.50
2018-06-30T23:00:52.360Z,4.90
2018-06-30T23:01:52.350Z,5.50
2018-06-30T23:02:52.285Z,4.70
2018-06-30T23:03:52.259Z,4.60
2018-06-30T23:04:52.213Z,5.00
2018-06-30T23:05:52.184Z,5.00
2018-06-30T23:06:52.145Z,4.70
2018-06-30T23:07:52.135Z,5.10
2018-06-30T23:08:52.073Z,4.90
2018-06-30T23:09:52.044Z,4.80
2018-06-30T23:10:52.006Z,5.40
2018-06-30T23:11:51.975Z,4.60
2018-06-30T23:12:51.949Z,4.60
2018-06-30T23:13:52.053Z,5.10
2018-06-30T23:14:51.915Z,4.80
2018-06-30T23:15:52.797Z,5.00
2018-06-30T23:16:51.791Z,5.30
2018-06-30T23:17:51.886Z,4.80
2018-06-30T23:18:51.723Z,4.80
2018-06-30T23:19:51.714Z,5.10
2018-06-30T23:20:51.654Z,4.90
2018-06-30T23:21:51.620Z,5.70
2018-06-30T23:22:52.586Z,5.30
2018-06-30T23:23:51.568Z,5.10
2018-06-30T23:24:52.753Z,4.90
2018-06-30T23:25:51.476Z,5.30
2018-06-30T23:26:51.455Z,4.90
2018-06-30T23:27:51.406Z,5.30
2018-06-30T23:29:03.206Z,4.90
2018-06-30T23:29:51.334Z,4.70
2018-06-30T23:30:51.305Z,5.10
2018-06-30T23:31:51.265Z,4.80
2018-06-30T23:32:51.231Z,4.90
2018-06-30T23:33:51.214Z,4.80
2018-06-30T23:34:51.196Z,5.10
2018-06-30T23:35:51.125Z,5.30
2018-06-30T23:36:51.091Z,5.10
2018-06-30T23:37:51.056Z,5.10
2018-06-30T23:38:51.016Z,5.10
2018-06-30T23:39:51.011Z,4.90
2018-06-30T23:40:50.980Z,5.00
2018-06-30T23:41:50.911Z,5.30
2018-06-30T23:42:50.879Z,5.40
2018-06-30T23:43:50.840Z,5.20
2018-06-30T23:44:50.806Z,4.80
2018-06-30T23:45:50.795Z,4.80
2018-06-30T23:46:50.733Z,5.40
2018-06-30T23:47:50.700Z,5.30
2018-06-30T23:48:50.661Z,5.30
2018-06-30T23:49:50.633Z,5.00
2018-06-30T23:50:50.633Z,5.20
2018-06-30T23:51:50.558Z,5.20
2018-06-30T23:52:50.523Z,5.30
2018-06-30T23:53:52.536Z,4.60
2018-06-30T23:54:50.678Z,4.90
2018-06-30T23:55:50.460Z,4.60
2018-06-30T23:56:50.380Z,4.70
2018-06-30T23:57:50.345Z,4.50
2018-06-30T23:58:50.311Z,4.80
2018-06-30T23:59:50.274Z,5.10
